sensor_id;sensor_type;location;lat;lon;timestamp;noise_LAeq;noise_LA_min;noise_LA_max;noise_LA01;noise_LA95
61095;Laerm;20450;49.074;9.158;2023-07-20T00:02:23;42.70;40.89;44.43;;
61095;Laerm;20450;49.074;9.158;2023-07-20T00:04:50;42.92;40.62;44.87;;
61095;Laerm;20450;49.074;9.158;2023-07-20T00:07:17;42.67;41.06;44.15;;
61095;Laerm;20450;49.074;9.158;2023-07-20T00:09:44;42.88;40.71;44.54;;
61095;Laerm;20450;49.074;9.158;2023-07-20T00:12:11;42.89;40.62;45.07;;
61095;Laerm;20450;49.074;9.158;2023-07-20T00:14:39;42.67;40.53;44.27;;
61095;Laerm;20450;49.074;9.158;2023-07-20T00:17:06;42.81;40.62;44.80;;
61095;Laerm;20450;49.074;9.158;2023-07-20T00:19:33;42.56;40.23;44.19;;
61095;Laerm;20450;49.074;9.158;2023-07-20T00:22:00;43.05;40.89;44.69;;
61095;Laerm;20450;49.074;9.158;2023-07-20T00:24:28;42.63;40.71;44.47;;
61095;Laerm;20450;49.074;9.158;2023-07-20T00:26:55;42.40;40.33;44.56;;
61095;Laerm;20450;49.074;9.158;2023-07-20T00:29:22;42.83;39.81;45.11;;
61095;Laerm;20450;49.074;9.158;2023-07-20T00:31:50;42.72;41.06;44.15;;
61095;Laerm;20450;49.074;9.158;2023-07-20T00:34:18;42.09;40.23;43.63;;
61095;Laerm;20450;49.074;9.158;2023-07-20T00:36:45;42.39;40.33;44.76;;
61095;Laerm;20450;49.074;9.158;2023-07-20T00:39:12;42.69;40.80;44.69;;
61095;Laerm;20450;49.074;9.158;2023-07-20T00:41:39;42.53;40.43;44.87;;
61095;Laerm;20450;49.074;9.158;2023-07-20T00:44:06;42.24;40.03;43.77;;
61095;Laerm;20450;49.074;9.158;2023-07-20T00:46:33;42.34;40.43;44.27;;
61095;Laerm;20450;49.074;9.158;2023-07-20T00:49:02;42.39;40.54;43.99;;
61095;Laerm;20450;49.074;9.158;2023-07-20T00:51:29;42.00;40.03;44.07;;
61095;Laerm;20450;49.074;9.158;2023-07-20T00:53:56;41.57;38.95;43.44;;
61095;Laerm;20450;49.074;9.158;2023-07-20T00:56:24;41.94;39.58;43.54;;
61095;Laerm;20450;49.074;9.158;2023-07-20T00:58:52;41.95;39.92;44.35;;
61095;Laerm;20450;49.074;9.158;2023-07-20T01:01:22;41.98;40.23;43.77;;
61095;Laerm;20450;49.074;9.158;2023-07-20T01:03:49;42.20;40.43;43.94;;
61095;Laerm;20450;49.074;9.158;2023-07-20T01:06:30;42.22;39.70;44.54;;
61095;Laerm;20450;49.074;9.158;2023-07-20T01:09:08;42.23;39.58;44.07;;
61095;Laerm;20450;49.074;9.158;2023-07-20T01:11:43;43.14;40.23;56.24;;
61095;Laerm;20450;49.074;9.158;2023-07-20T01:14:12;42.79;40.53;51.07;;
61095;Laerm;20450;49.074;9.158;2023-07-20T01:16:40;42.49;40.62;44.31;;
61095;Laerm;20450;49.074;9.158;2023-07-20T01:19:07;42.42;40.53;44.47;;
61095;Laerm;20450;49.074;9.158;2023-07-20T01:21:46;42.54;40.62;47.00;;
61095;Laerm;20450;49.074;9.158;2023-07-20T01:24:38;42.31;40.43;44.35;;
61095;Laerm;20450;49.074;9.158;2023-07-20T01:30:34;43.07;40.62;51.57;;
61095;Laerm;20450;49.074;9.158;2023-07-20T01:33:03;42.90;40.03;45.11;;
61095;Laerm;20450;49.074;9.158;2023-07-20T01:35:33;42.78;40.71;44.69;;
61095;Laerm;20450;49.074;9.158;2023-07-20T01:38:02;42.45;40.43;44.07;;
61095;Laerm;20450;49.074;9.158;2023-07-20T01:40:31;42.73;40.80;44.80;;
61095;Laerm;20450;49.074;9.158;2023-07-20T01:42:58;42.69;40.89;44.43;;
61095;Laerm;20450;49.074;9.158;2023-07-20T01:45:25;42.66;41.11;44.23;;
61095;Laerm;20450;49.074;9.158;2023-07-20T01:47:52;42.50;40.80;44.27;;
61095;Laerm;20450;49.074;9.158;2023-07-20T01:50:21;42.65;40.03;44.90;;
61095;Laerm;20450;49.074;9.158;2023-07-20T01:52:47;42.23;40.33;44.11;;
61095;Laerm;20450;49.074;9.158;2023-07-20T01:55:15;42.14;40.13;43.90;;
61095;Laerm;20450;49.074;9.158;2023-07-20T01:57:42;42.37;40.62;44.03;;
61095;Laerm;20450;49.074;9.158;2023-07-20T02:00:10;41.99;40.03;43.77;;
61095;Laerm;20450;49.074;9.158;2023-07-20T02:02:41;41.62;39.34;43.58;;
61095;Laerm;20450;49.074;9.158;2023-07-20T02:05:09;41.96;39.58;44.11;;
61095;Laerm;20450;49.074;9.158;2023-07-20T02:07:38;42.30;40.33;44.34;;
61095;Laerm;20450;49.074;9.158;2023-07-20T02:10:06;42.08;40.23;45.14;;
61095;Laerm;20450;49.074;9.158;2023-07-20T02:12:35;42.07;40.62;43.49;;
61095;Laerm;20450;49.074;9.158;2023-07-20T02:15:02;41.78;39.92;43.34;;
61095;Laerm;20450;49.074;9.158;2023-07-20T02:17:30;41.93;39.92;43.94;;
61095;Laerm;20450;49.074;9.158;2023-07-20T02:19:57;42.08;39.70;50.10;;
61095;Laerm;20450;49.074;9.158;2023-07-20T02:22:24;42.41;40.62;44.65;;
61095;Laerm;20450;49.074;9.158;2023-07-20T02:24:52;42.41;40.13;45.69;;
61095;Laerm;20450;49.074;9.158;2023-07-20T02:27:20;42.23;39.46;44.76;;
61095;Laerm;20450;49.074;9.158;2023-07-20T02:29:47;41.61;38.67;43.54;;
61095;Laerm;20450;49.074;9.158;2023-07-20T02:32:14;41.29;39.21;42.93;;
61095;Laerm;20450;49.074;9.158;2023-07-20T02:34:41;41.54;39.46;44.19;;
61095;Laerm;20450;49.074;9.158;2023-07-20T02:37:09;41.88;39.92;43.90;;
61095;Laerm;20450;49.074;9.158;2023-07-20T02:39:38;41.24;39.21;45.94;;
61095;Laerm;20450;49.074;9.158;2023-07-20T02:42:07;41.53;39.46;43.29;;
61095;Laerm;20450;49.074;9.158;2023-07-20T02:44:34;41.71;39.70;43.94;;
61095;Laerm;20450;49.074;9.158;2023-07-20T02:47:01;41.54;39.21;44.65;;
61095;Laerm;20450;49.074;9.158;2023-07-20T02:49:28;41.51;38.67;43.63;;
61095;Laerm;20450;49.074;9.158;2023-07-20T02:51:55;40.76;38.67;42.41;;
61095;Laerm;20450;49.074;9.158;2023-07-20T02:54:22;41.43;38.52;44.03;;
61095;Laerm;20450;49.074;9.158;2023-07-20T02:56:49;41.54;39.34;49.16;;
61095;Laerm;20450;49.074;9.158;2023-07-20T02:59:17;40.89;38.81;44.80;;
61095;Laerm;20450;49.074;9.158;2023-07-20T03:01:44;41.26;38.87;43.81;;
61095;Laerm;20450;49.074;9.158;2023-07-20T03:04:11;42.19;39.46;43.68;;
61095;Laerm;20450;49.074;9.158;2023-07-20T03:06:38;42.12;40.23;44.11;;
61095;Laerm;20450;49.074;9.158;2023-07-20T03:09:05;41.98;40.43;43.77;;
61095;Laerm;20450;49.074;9.158;2023-07-20T03:11:32;42.35;40.53;46.50;;
61095;Laerm;20450;49.074;9.158;2023-07-20T03:14:02;41.87;39.58;43.99;;
61095;Laerm;20450;49.074;9.158;2023-07-20T03:16:31;42.12;40.13;47.10;;
61095;Laerm;20450;49.074;9.158;2023-07-20T03:18:58;41.88;39.81;44.07;;
61095;Laerm;20450;49.074;9.158;2023-07-20T03:21:25;42.41;40.23;48.70;;
61095;Laerm;20450;49.074;9.158;2023-07-20T03:23:52;42.33;40.43;44.97;;
61095;Laerm;20450;49.074;9.158;2023-07-20T03:26:19;42.19;40.03;45.45;;
61095;Laerm;20450;49.074;9.158;2023-07-20T03:28:47;42.02;40.13;49.32;;
61095;Laerm;20450;49.074;9.158;2023-07-20T03:31:14;41.88;39.58;43.68;;
61095;Laerm;20450;49.074;9.158;2023-07-20T03:33:43;41.59;38.67;44.07;;
61095;Laerm;20450;49.074;9.158;2023-07-20T03:36:10;41.63;39.21;44.20;;
61095;Laerm;20450;49.074;9.158;2023-07-20T03:38:37;41.56;39.21;43.34;;
61095;Laerm;20450;49.074;9.158;2023-07-20T03:41:04;41.98;39.81;47.28;;
61095;Laerm;20450;49.074;9.158;2023-07-20T03:43:33;41.30;39.08;44.07;;
61095;Laerm;20450;49.074;9.158;2023-07-20T03:46:00;41.33;38.67;52.57;;
61095;Laerm;20450;49.074;9.158;2023-07-20T03:48:27;42.15;38.52;53.12;;
61095;Laerm;20450;49.074;9.158;2023-07-20T03:50:55;41.08;38.21;45.07;;
61095;Laerm;20450;49.074;9.158;2023-07-20T03:53:23;41.51;38.37;47.65;;
61095;Laerm;20450;49.074;9.158;2023-07-20T03:55:52;41.48;38.37;45.60;;
61095;Laerm;20450;49.074;9.158;2023-07-20T03:58:20;41.20;38.37;45.72;;
61095;Laerm;20450;49.074;9.158;2023-07-20T04:00:50;41.57;37.52;47.34;;
61095;Laerm;20450;49.074;9.158;2023-07-20T04:03:18;41.68;39.08;44.39;;
61095;Laerm;20450;49.074;9.158;2023-07-20T04:05:46;42.76;40.53;61.80;;
61095;Laerm;20450;49.074;9.158;2023-07-20T04:08:14;42.11;38.95;51.28;;
61095;Laerm;20450;49.074;9.158;2023-07-20T04:10:44;42.11;40.03;45.83;;
61095;Laerm;20450;49.074;9.158;2023-07-20T04:13:11;43.13;40.98;51.70;;
61095;Laerm;20450;49.074;9.158;2023-07-20T04:15:39;42.87;40.43;46.43;;
61095;Laerm;20450;49.074;9.158;2023-07-20T04:18:06;42.67;40.13;48.78;;
61095;Laerm;20450;49.074;9.158;2023-07-20T04:20:33;42.45;39.81;48.16;;
61095;Laerm;20450;49.074;9.158;2023-07-20T04:23:00;42.49;40.23;45.91;;
61095;Laerm;20450;49.074;9.158;2023-07-20T04:25:29;42.82;40.13;46.61;;
61095;Laerm;20450;49.074;9.158;2023-07-20T04:27:57;42.51;40.62;45.42;;
61095;Laerm;20450;49.074;9.158;2023-07-20T04:30:24;42.89;40.98;47.57;;
61095;Laerm;20450;49.074;9.158;2023-07-20T04:32:51;42.92;41.14;52.46;;
61095;Laerm;20450;49.074;9.158;2023-07-20T04:35:46;43.12;41.41;52.07;;
61095;Laerm;20450;49.074;9.158;2023-07-20T04:38:17;43.05;41.53;49.18;;
61095;Laerm;20450;49.074;9.158;2023-07-20T04:40:49;43.67;41.89;50.09;;
61095;Laerm;20450;49.074;9.158;2023-07-20T04:43:17;43.48;41.68;47.18;;
61095;Laerm;20450;49.074;9.158;2023-07-20T04:45:45;43.40;41.53;47.16;;
61095;Laerm;20450;49.074;9.158;2023-07-20T04:48:14;43.39;41.46;47.16;;
61095;Laerm;20450;49.074;9.158;2023-07-20T04:50:48;43.38;41.38;54.01;;
61095;Laerm;20450;49.074;9.158;2023-07-20T04:53:15;43.29;41.22;47.48;;
61095;Laerm;20450;49.074;9.158;2023-07-20T04:55:49;43.24;40.89;49.77;;
61095;Laerm;20450;49.074;9.158;2023-07-20T04:58:19;44.53;41.14;51.47;;
61095;Laerm;20450;49.074;9.158;2023-07-20T05:00:48;45.16;42.53;52.44;;
61095;Laerm;20450;49.074;9.158;2023-07-20T05:03:15;47.15;44.58;54.78;;
61095;Laerm;20450;49.074;9.158;2023-07-20T05:05:43;46.01;43.39;59.79;;
61095;Laerm;20450;49.074;9.158;2023-07-20T05:08:12;45.56;43.24;55.07;;
61095;Laerm;20450;49.074;9.158;2023-07-20T05:10:42;46.20;43.80;53.83;;
61095;Laerm;20450;49.074;9.158;2023-07-20T05:13:11;45.64;43.49;58.28;;
61095;Laerm;20450;49.074;9.158;2023-07-20T05:15:38;44.18;42.22;50.91;;
61095;Laerm;20450;49.074;9.158;2023-07-20T05:18:09;43.87;40.98;50.57;;
61095;Laerm;20450;49.074;9.158;2023-07-20T05:20:37;44.40;41.46;50.07;;
61095;Laerm;20450;49.074;9.158;2023-07-20T05:23:05;44.89;42.47;51.59;;
61095;Laerm;20450;49.074;9.158;2023-07-20T05:25:32;44.08;42.16;52.28;;
61095;Laerm;20450;49.074;9.158;2023-07-20T05:28:00;44.29;42.16;50.10;;
61095;Laerm;20450;49.074;9.158;2023-07-20T05:30:28;45.82;42.98;53.61;;
61095;Laerm;20450;49.074;9.158;2023-07-20T05:32:56;44.60;42.22;52.13;;
61095;Laerm;20450;49.074;9.158;2023-07-20T05:35:23;43.64;41.89;47.59;;
61095;Laerm;20450;49.074;9.158;2023-07-20T05:37:51;43.54;41.89;48.94;;
61095;Laerm;20450;49.074;9.158;2023-07-20T05:40:18;44.66;42.29;53.27;;
61095;Laerm;20450;49.074;9.158;2023-07-20T05:42:46;45.74;42.65;54.09;;
61095;Laerm;20450;49.074;9.158;2023-07-20T05:45:17;44.56;42.35;50.12;;
61095;Laerm;20450;49.074;9.158;2023-07-20T05:47:47;44.83;42.71;50.68;;
61095;Laerm;20450;49.074;9.158;2023-07-20T05:50:14;44.18;42.09;51.64;;
61095;Laerm;20450;49.074;9.158;2023-07-20T05:52:42;44.31;41.89;56.02;;
61095;Laerm;20450;49.074;9.158;2023-07-20T05:55:09;43.61;41.46;48.39;;
61095;Laerm;20450;49.074;9.158;2023-07-20T05:57:37;43.85;41.75;50.04;;
61095;Laerm;20450;49.074;9.158;2023-07-20T06:00:05;43.95;41.53;52.88;;
61095;Laerm;20450;49.074;9.158;2023-07-20T06:02:41;44.58;41.14;50.44;;
61095;Laerm;20450;49.074;9.158;2023-07-20T06:05:10;45.33;42.71;54.92;;
61095;Laerm;20450;49.074;9.158;2023-07-20T06:07:38;45.28;43.24;50.33;;
61095;Laerm;20450;49.074;9.158;2023-07-20T06:10:06;46.39;44.03;55.13;;
61095;Laerm;20450;49.074;9.158;2023-07-20T06:12:33;46.39;44.23;51.07;;
61095;Laerm;20450;49.074;9.158;2023-07-20T06:15:03;45.84;44.03;60.64;;
61095;Laerm;20450;49.074;9.158;2023-07-20T06:17:32;46.19;43.24;56.88;;
61095;Laerm;20450;49.074;9.158;2023-07-20T06:19:59;47.27;43.58;61.12;;
61095;Laerm;20450;49.074;9.158;2023-07-20T06:22:28;46.74;42.53;64.53;;
61095;Laerm;20450;49.074;9.158;2023-07-20T06:24:55;49.94;42.82;78.96;;
61095;Laerm;20450;49.074;9.158;2023-07-20T06:27:22;47.70;41.82;71.79;;
61095;Laerm;20450;49.074;9.158;2023-07-20T06:29:49;49.57;43.72;76.38;;
61095;Laerm;20450;49.074;9.158;2023-07-20T06:32:16;46.19;42.47;60.45;;
61095;Laerm;20450;49.074;9.158;2023-07-20T06:34:43;47.11;42.65;58.15;;
61095;Laerm;20450;49.074;9.158;2023-07-20T06:37:11;48.67;42.82;63.42;;
61095;Laerm;20450;49.074;9.158;2023-07-20T06:39:39;49.38;43.09;60.83;;
61095;Laerm;20450;49.074;9.158;2023-07-20T06:42:09;48.16;42.82;61.75;;
61095;Laerm;20450;49.074;9.158;2023-07-20T06:44:39;45.84;41.96;62.84;;
61095;Laerm;20450;49.074;9.158;2023-07-20T06:47:07;45.76;41.75;55.77;;
61095;Laerm;20450;49.074;9.158;2023-07-20T06:49:34;46.70;43.63;57.16;;
61095;Laerm;20450;49.074;9.158;2023-07-20T06:52:02;45.34;42.93;59.34;;
61095;Laerm;20450;49.074;9.158;2023-07-20T06:54:30;45.55;42.65;54.76;;
61095;Laerm;20450;49.074;9.158;2023-07-20T06:57:05;45.60;42.88;54.09;;
61095;Laerm;20450;49.074;9.158;2023-07-20T06:59:53;45.30;41.82;53.75;;
61095;Laerm;20450;49.074;9.158;2023-07-20T07:02:23;44.81;42.03;53.74;;
61095;Laerm;20450;49.074;9.158;2023-07-20T07:04:50;45.20;42.47;56.91;;
61095;Laerm;20450;49.074;9.158;2023-07-20T07:07:28;44.55;42.53;50.61;;
61095;Laerm;20450;49.074;9.158;2023-07-20T07:09:56;46.55;43.24;49.56;;
61095;Laerm;20450;49.074;9.158;2023-07-20T07:12:27;46.71;43.94;58.04;;
61095;Laerm;20450;49.074;9.158;2023-07-20T07:14:55;46.22;43.54;54.79;;
61095;Laerm;20450;49.074;9.158;2023-07-20T07:17:22;44.93;41.89;58.33;;
61095;Laerm;20450;49.074;9.158;2023-07-20T07:19:52;44.08;40.43;58.08;;
61095;Laerm;20450;49.074;9.158;2023-07-20T07:22:20;44.77;40.89;56.97;;
61095;Laerm;20450;49.074;9.158;2023-07-20T07:24:52;44.34;41.68;52.00;;
61095;Laerm;20450;49.074;9.158;2023-07-20T07:27:21;45.42;42.29;56.39;;
61095;Laerm;20450;49.074;9.158;2023-07-20T07:29:50;46.73;40.62;56.00;;
61095;Laerm;20450;49.074;9.158;2023-07-20T07:32:18;46.81;41.22;62.58;;
61095;Laerm;20450;49.074;9.158;2023-07-20T07:34:45;45.32;41.61;57.20;;
61095;Laerm;20450;49.074;9.158;2023-07-20T07:37:15;44.47;41.11;61.00;;
61095;Laerm;20450;49.074;9.158;2023-07-20T07:39:42;44.04;40.80;55.64;;
61095;Laerm;20450;49.074;9.158;2023-07-20T07:42:13;43.84;39.58;56.34;;
61095;Laerm;20450;49.074;9.158;2023-07-20T07:44:40;44.85;42.03;54.62;;
61095;Laerm;20450;49.074;9.158;2023-07-20T07:47:09;44.82;41.30;59.91;;
61095;Laerm;20450;49.074;9.158;2023-07-20T07:49:36;44.16;40.03;56.17;;
61095;Laerm;20450;49.074;9.158;2023-07-20T07:52:05;44.54;40.23;52.84;;
61095;Laerm;20450;49.074;9.158;2023-07-20T07:54:33;43.90;40.03;56.28;;
61095;Laerm;20450;49.074;9.158;2023-07-20T07:56:59;43.67;40.13;53.97;;
61095;Laerm;20450;49.074;9.158;2023-07-20T07:59:27;43.32;39.58;50.10;;
61095;Laerm;20450;49.074;9.158;2023-07-20T08:01:54;45.61;41.14;58.18;;
61095;Laerm;20450;49.074;9.158;2023-07-20T08:04:23;42.95;39.58;48.70;;
61095;Laerm;20450;49.074;9.158;2023-07-20T08:06:50;45.42;39.11;56.27;;
61095;Laerm;20450;49.074;9.158;2023-07-20T08:09:17;43.55;40.53;53.69;;
61095;Laerm;20450;49.074;9.158;2023-07-20T08:11:45;44.14;41.30;55.28;;
61095;Laerm;20450;49.074;9.158;2023-07-20T08:14:13;44.04;40.13;55.88;;
61095;Laerm;20450;49.074;9.158;2023-07-20T08:16:40;43.22;39.58;53.88;;
61095;Laerm;20450;49.074;9.158;2023-07-20T08:19:08;42.24;38.95;51.42;;
61095;Laerm;20450;49.074;9.158;2023-07-20T08:21:36;42.30;39.21;50.91;;
61095;Laerm;20450;49.074;9.158;2023-07-20T08:24:05;42.33;38.52;47.55;;
61095;Laerm;20450;49.074;9.158;2023-07-20T08:26:33;41.86;37.87;49.14;;
61095;Laerm;20450;49.074;9.158;2023-07-20T08:29:03;42.33;38.37;55.96;;
61095;Laerm;20450;49.074;9.158;2023-07-20T08:31:31;43.19;39.08;56.14;;
61095;Laerm;20450;49.074;9.158;2023-07-20T08:33:58;42.44;38.67;50.37;;
61095;Laerm;20450;49.074;9.158;2023-07-20T08:36:36;44.12;40.13;56.83;;
61095;Laerm;20450;49.074;9.158;2023-07-20T08:39:03;44.11;40.71;52.70;;
61095;Laerm;20450;49.074;9.158;2023-07-20T08:41:31;44.36;39.70;49.44;;
61095;Laerm;20450;49.074;9.158;2023-07-20T08:43:59;45.02;39.34;60.60;;
61095;Laerm;20450;49.074;9.158;2023-07-20T08:46:28;45.55;41.96;52.53;;
61095;Laerm;20450;49.074;9.158;2023-07-20T08:48:58;44.67;41.06;50.76;;
61095;Laerm;20450;49.074;9.158;2023-07-20T08:51:27;44.73;40.80;51.18;;
61095;Laerm;20450;49.074;9.158;2023-07-20T08:53:58;46.53;42.76;51.64;;
61095;Laerm;20450;49.074;9.158;2023-07-20T08:56:26;47.20;42.88;52.98;;
61095;Laerm;20450;49.074;9.158;2023-07-20T08:58:53;44.95;42.22;52.17;;
61095;Laerm;20450;49.074;9.158;2023-07-20T09:01:22;43.56;38.95;49.84;;
61095;Laerm;20450;49.074;9.158;2023-07-20T09:03:50;44.92;40.88;57.39;;
61095;Laerm;20450;49.074;9.158;2023-07-20T09:06:18;44.40;39.08;56.32;;
61095;Laerm;20450;49.074;9.158;2023-07-20T09:08:46;45.38;40.53;62.71;;
61095;Laerm;20450;49.074;9.158;2023-07-20T09:11:18;43.02;38.05;50.91;;
61095;Laerm;20450;49.074;9.158;2023-07-20T09:13:46;45.05;37.70;55.88;;
61095;Laerm;20450;49.074;9.158;2023-07-20T09:16:16;45.22;42.29;49.27;;
61095;Laerm;20450;49.074;9.158;2023-07-20T09:18:47;44.55;40.98;52.70;;
61095;Laerm;20450;49.074;9.158;2023-07-20T09:21:18;42.67;38.95;50.19;;
61095;Laerm;20450;49.074;9.158;2023-07-20T09:23:46;43.10;39.58;50.49;;
61095;Laerm;20450;49.074;9.158;2023-07-20T09:26:16;43.48;39.08;55.63;;
61095;Laerm;20450;49.074;9.158;2023-07-20T09:28:51;44.53;40.43;55.51;;
61095;Laerm;20450;49.074;9.158;2023-07-20T09:31:22;46.32;42.35;53.63;;
61095;Laerm;20450;49.074;9.158;2023-07-20T09:33:54;45.50;42.88;53.35;;
61095;Laerm;20450;49.074;9.158;2023-07-20T09:36:26;44.19;40.80;50.79;;
61095;Laerm;20450;49.074;9.158;2023-07-20T09:38:58;45.22;42.16;53.65;;
61095;Laerm;20450;49.074;9.158;2023-07-20T09:41:41;46.37;42.76;54.43;;
61095;Laerm;20450;49.074;9.158;2023-07-20T09:44:14;43.88;39.21;54.19;;
61095;Laerm;20450;49.074;9.158;2023-07-20T09:46:49;42.49;37.12;51.14;;
61095;Laerm;20450;49.074;9.158;2023-07-20T09:49:20;41.98;37.88;51.30;;
61095;Laerm;20450;49.074;9.158;2023-07-20T09:51:54;42.54;38.21;51.37;;
61095;Laerm;20450;49.074;9.158;2023-07-20T09:54:22;44.75;41.22;53.34;;
61095;Laerm;20450;49.074;9.158;2023-07-20T09:56:54;44.03;41.14;48.15;;
61095;Laerm;20450;49.074;9.158;2023-07-20T09:59:21;45.78;43.34;54.12;;
61095;Laerm;20450;49.074;9.158;2023-07-20T10:01:49;45.72;42.29;61.04;;
61095;Laerm;20450;49.074;9.158;2023-07-20T10:04:23;46.08;42.47;55.54;;
61095;Laerm;20450;49.074;9.158;2023-07-20T10:06:59;43.61;40.23;59.33;;
61095;Laerm;20450;49.074;9.158;2023-07-20T10:09:27;44.22;41.06;49.27;;
61095;Laerm;20450;49.074;9.158;2023-07-20T10:11:59;44.45;39.92;56.64;;
61095;Laerm;20450;49.074;9.158;2023-07-20T10:14:57;46.24;41.89;51.54;;
61095;Laerm;20450;49.074;9.158;2023-07-20T10:17:30;46.91;43.29;57.75;;
61095;Laerm;20450;49.074;9.158;2023-07-20T10:20:02;45.66;41.38;51.89;;
61095;Laerm;20450;49.074;9.158;2023-07-20T10:22:36;46.91;42.58;57.06;;
61095;Laerm;20450;49.074;9.158;2023-07-20T10:25:09;47.15;42.93;56.28;;
61095;Laerm;20450;49.074;9.158;2023-07-20T10:27:39;44.76;41.75;54.58;;
61095;Laerm;20450;49.074;9.158;2023-07-20T10:30:08;42.23;39.08;47.28;;
61095;Laerm;20450;49.074;9.158;2023-07-20T10:32:35;44.59;40.80;53.81;;
61095;Laerm;20450;49.074;9.158;2023-07-20T10:35:13;45.42;39.34;56.09;;
61095;Laerm;20450;49.074;9.158;2023-07-20T10:37:50;44.32;40.03;50.77;;
61095;Laerm;20450;49.074;9.158;2023-07-20T10:40:40;44.60;39.34;57.47;;
61095;Laerm;20450;49.074;9.158;2023-07-20T10:43:10;44.62;39.81;53.42;;
61095;Laerm;20450;49.074;9.158;2023-07-20T10:45:48;43.77;40.71;51.65;;
61095;Laerm;20450;49.074;9.158;2023-07-20T10:48:19;44.63;40.62;50.73;;
61095;Laerm;20450;49.074;9.158;2023-07-20T10:51:11;44.32;38.37;55.38;;
61095;Laerm;20450;49.074;9.158;2023-07-20T10:53:40;42.95;38.67;60.66;;
61095;Laerm;20450;49.074;9.158;2023-07-20T10:56:11;42.83;38.67;55.79;;
61095;Laerm;20450;49.074;9.158;2023-07-20T10:58:42;44.88;39.34;52.26;;
61095;Laerm;20450;49.074;9.158;2023-07-20T11:01:14;46.80;42.16;55.74;;
61095;Laerm;20450;49.074;9.158;2023-07-20T11:03:49;45.68;41.14;57.76;;
61095;Laerm;20450;49.074;9.158;2023-07-20T11:06:33;45.67;42.93;55.70;;
61095;Laerm;20450;49.074;9.158;2023-07-20T11:09:22;44.75;40.80;50.99;;
61095;Laerm;20450;49.074;9.158;2023-07-20T11:12:10;44.23;38.52;50.64;;
61095;Laerm;20450;49.074;9.158;2023-07-20T11:14:43;43.13;38.95;57.07;;
61095;Laerm;20450;49.074;9.158;2023-07-20T11:17:14;43.68;38.52;58.18;;
61095;Laerm;20450;49.074;9.158;2023-07-20T11:19:48;43.46;38.95;56.56;;
61095;Laerm;20450;49.074;9.158;2023-07-20T11:22:20;45.23;40.03;53.81;;
61095;Laerm;20450;49.074;9.158;2023-07-20T11:24:48;45.86;41.38;55.27;;
61095;Laerm;20450;49.074;9.158;2023-07-20T11:27:15;45.15;42.59;51.81;;
61095;Laerm;20450;49.074;9.158;2023-07-20T11:29:45;45.31;42.69;59.35;;
61095;Laerm;20450;49.074;9.158;2023-07-20T11:32:12;45.07;41.14;61.54;;
61095;Laerm;20450;49.074;9.158;2023-07-20T11:34:51;44.28;39.92;56.25;;
61095;Laerm;20450;49.074;9.158;2023-07-20T11:37:18;43.54;39.57;50.95;;
61095;Laerm;20450;49.074;9.158;2023-07-20T11:39:46;42.94;39.21;50.40;;
61095;Laerm;20450;49.074;9.158;2023-07-20T11:42:13;44.35;39.81;52.77;;
61095;Laerm;20450;49.074;9.158;2023-07-20T11:45:04;44.25;40.80;54.99;;
61095;Laerm;20450;49.074;9.158;2023-07-20T11:47:32;43.82;40.53;55.50;;
61095;Laerm;20450;49.074;9.158;2023-07-20T11:50:04;44.23;40.43;52.60;;
61095;Laerm;20450;49.074;9.158;2023-07-20T11:52:33;43.10;38.95;58.63;;
61095;Laerm;20450;49.074;9.158;2023-07-20T11:55:01;43.06;38.37;59.50;;
61095;Laerm;20450;49.074;9.158;2023-07-20T11:57:30;43.51;38.21;55.39;;
61095;Laerm;20450;49.074;9.158;2023-07-20T12:00:03;43.95;39.21;53.85;;
61095;Laerm;20450;49.074;9.158;2023-07-20T12:02:32;46.51;40.53;52.23;;
61095;Laerm;20450;49.074;9.158;2023-07-20T12:05:02;47.18;43.04;62.72;;
61095;Laerm;20450;49.074;9.158;2023-07-20T12:07:35;44.45;41.14;54.56;;
61095;Laerm;20450;49.074;9.158;2023-07-20T12:10:06;46.03;43.24;57.06;;
61095;Laerm;20450;49.074;9.158;2023-07-20T12:12:34;48.58;43.68;58.88;;
61095;Laerm;20450;49.074;9.158;2023-07-20T12:15:17;45.67;41.06;51.87;;
61095;Laerm;20450;49.074;9.158;2023-07-20T12:17:50;45.14;40.80;54.84;;
61095;Laerm;20450;49.074;9.158;2023-07-20T12:20:29;43.06;39.46;58.31;;
61095;Laerm;20450;49.074;9.158;2023-07-20T12:23:00;43.26;40.43;53.96;;
61095;Laerm;20450;49.074;9.158;2023-07-20T12:25:37;43.22;37.32;56.00;;
61095;Laerm;20450;49.074;9.158;2023-07-20T12:28:08;43.49;38.81;56.57;;
61095;Laerm;20450;49.074;9.158;2023-07-20T12:30:36;43.13;39.46;54.59;;
61095;Laerm;20450;49.074;9.158;2023-07-20T12:33:06;45.18;40.03;52.85;;
61095;Laerm;20450;49.074;9.158;2023-07-20T12:35:34;45.91;40.62;55.36;;
61095;Laerm;20450;49.074;9.158;2023-07-20T12:38:01;44.18;39.70;58.35;;
61095;Laerm;20450;49.074;9.158;2023-07-20T12:40:29;44.00;39.81;54.51;;
61095;Laerm;20450;49.074;9.158;2023-07-20T12:42:57;42.94;39.58;55.05;;
61095;Laerm;20450;49.074;9.158;2023-07-20T12:45:24;43.15;40.45;53.39;;
61095;Laerm;20450;49.074;9.158;2023-07-20T12:47:54;43.80;41.38;58.28;;
61095;Laerm;20450;49.074;9.158;2023-07-20T12:50:22;44.85;42.35;53.80;;
61095;Laerm;20450;49.074;9.158;2023-07-20T12:52:49;44.66;41.96;59.60;;
61095;Laerm;20450;49.074;9.158;2023-07-20T12:55:17;44.12;40.89;55.19;;
61095;Laerm;20450;49.074;9.158;2023-07-20T12:57:45;45.85;41.75;56.85;;
61095;Laerm;20450;49.074;9.158;2023-07-20T13:00:15;43.68;39.81;60.00;;
61095;Laerm;20450;49.074;9.158;2023-07-20T13:02:44;43.73;40.33;55.67;;
61095;Laerm;20450;49.074;9.158;2023-07-20T13:05:13;43.77;39.34;56.05;;
61095;Laerm;20450;49.074;9.158;2023-07-20T13:07:40;45.09;41.06;56.16;;
61095;Laerm;20450;49.074;9.158;2023-07-20T13:10:11;44.94;41.82;57.44;;
61095;Laerm;20450;49.074;9.158;2023-07-20T13:12:39;46.91;42.53;63.34;;
61095;Laerm;20450;49.074;9.158;2023-07-20T13:15:08;45.63;43.19;53.05;;
61095;Laerm;20450;49.074;9.158;2023-07-20T13:17:37;45.69;42.03;56.81;;
61095;Laerm;20450;49.074;9.158;2023-07-20T13:20:10;44.44;40.80;53.64;;
61095;Laerm;20450;49.074;9.158;2023-07-20T13:22:40;43.28;40.71;48.74;;
61095;Laerm;20450;49.074;9.158;2023-07-20T13:25:08;43.70;41.06;53.68;;
61095;Laerm;20450;49.074;9.158;2023-07-20T13:27:36;43.08;38.95;51.45;;
61095;Laerm;20450;49.074;9.158;2023-07-20T13:30:07;42.78;38.05;50.49;;
61095;Laerm;20450;49.074;9.158;2023-07-20T13:32:36;44.25;41.82;52.79;;
61095;Laerm;20450;49.074;9.158;2023-07-20T13:35:05;43.79;39.70;54.10;;
61095;Laerm;20450;49.074;9.158;2023-07-20T13:37:32;42.74;39.46;53.53;;
61095;Laerm;20450;49.074;9.158;2023-07-20T13:40:01;43.18;38.67;52.79;;
61095;Laerm;20450;49.074;9.158;2023-07-20T13:42:28;43.13;39.21;52.51;;
61095;Laerm;20450;49.074;9.158;2023-07-20T13:44:56;46.37;43.34;51.13;;
61095;Laerm;20450;49.074;9.158;2023-07-20T13:47:23;47.07;43.60;64.32;;
61095;Laerm;20450;49.074;9.158;2023-07-20T13:49:50;46.43;43.24;64.83;;
61095;Laerm;20450;49.074;9.158;2023-07-20T13:52:31;47.60;42.29;68.64;;
61095;Laerm;20450;49.074;9.158;2023-07-20T13:55:03;45.18;41.22;59.32;;
61095;Laerm;20450;49.074;9.158;2023-07-20T13:57:32;45.77;43.77;50.46;;
61095;Laerm;20450;49.074;9.158;2023-07-20T14:00:02;43.81;40.03;60.12;;
61095;Laerm;20450;49.074;9.158;2023-07-20T14:02:37;43.13;37.32;50.05;;